Alan T — WDC9571 — position and weather

sailwx.info

Track history (hours):
 
Tides and Currents Weather Stations Pressure Air Temp Water Temp Dewpoint Dewpoint Depression Visibility Wind Speed Wind Dir Waves Ship Positions

Alan T

Owner: SO CAL SHIP SERVICES, INC, TERMINAL ISLAND, CA. More information available from US FCC via Universal Licensing System and Coast Guard Vessel Documentation Center.

Last reported at 2018-Feb-20 01:00 UTC. Time now 2018-Feb-20 01:26 UTC.
Position N 34°22' W 119°30'.

Length 30 m; draft 2.5 m.

Type: Ship (hazmat cat B). MMSI: 367104060.

Date/timePositionNaut miles runAvg speedWind from/ knotsBaromVisibWave heightAir tempDewpointWater temp
2018-Feb-20 01:00N 34°22' W 119°30'0 0.0
2018-Feb-20 00:30N 34°22' W 119°30'0 0.0
2018-Feb-19 23:59N 34°22' W 119°30'4 7.5
2018-Feb-19 23:30N 34°20' W 119°33'4 7.0
2018-Feb-19 22:59N 34°20' W 119°38'3 6.3
2018-Feb-19 22:29N 34°20' W 119°34'2 5.2
2018-Feb-19 22:00N 34°20' W 119°37'2 4.5
2018-Feb-19 21:29N 34°20' W 119°34'4 8.5
2018-Feb-19 21:00N 34°23' W 119°30'713.1
2018-Feb-19 20:30N 34°20' W 119°38'0 0.3
2018-Feb-19 20:00N 34°20' W 119°37'1 1.8
2018-Feb-19 19:30N 34°20' W 119°36'2 3.8
2018-Feb-19 19:00N 34°20' W 119°34'3 6.3
2018-Feb-19 18:30N 34°20' W 119°38'1 1.7
2018-Feb-19 18:00N 34°20' W 119°37'5 9.3
2018-Feb-19 17:30N 34°21' W 119°32'2 3.5
2018-Feb-19 17:00N 34°23' W 119°30'2 4.3
2018-Feb-19 16:30N 34°21' W 119°32'4 8.9
2018-Feb-19 16:01N 34°20' W 119°37'0 0.3
2018-Feb-19 15:30N 34°20' W 119°37'1 1.8
2018-Feb-19 15:00N 34°20' W 119°36'510.6
2018-Feb-19 14:30N 34°23' W 119°30'0 0.0
2018-Feb-19 14:00N 34°23' W 119°30'1 1.1
2018-Feb-19 13:19N 34°22' W 119°30'0 0.0
2018-Feb-19 12:58N 34°22' W 119°30'0 0.0
2018-Feb-19 12:30N 34°22' W 119°30'0 0.0
2018-Feb-19 11:59N 34°22' W 119°30'0 0.0
2018-Feb-19 11:30N 34°22' W 119°30'0 0.0
2018-Feb-19 10:59N 34°22' W 119°30'0 0.0
2018-Feb-19 10:29N 34°22' W 119°30'0 0.0
2018-Feb-19 09:59N 34°22' W 119°30'0 0.0
2018-Feb-19 09:27N 34°22' W 119°30'0 0.0
2018-Feb-19 08:56N 34°22' W 119°30'0 0.0
2018-Feb-19 08:25N 34°22' W 119°30'0 0.0
2018-Feb-19 07:58N 34°22' W 119°30'0 0.0
2018-Feb-19 07:29N 34°22' W 119°30'0 0.0
2018-Feb-19 07:00N 34°22' W 119°30'0 0.0
2018-Feb-19 06:30N 34°22' W 119°30'0 0.0
2018-Feb-19 05:58N 34°22' W 119°30'0 0.0
2018-Feb-19 05:27N 34°22' W 119°30'0 0.0
2018-Feb-19 04:59N 34°22' W 119°30'0 0.0
2018-Feb-19 04:30N 34°22' W 119°30'0 0.0
2018-Feb-19 04:00N 34°22' W 119°30'0 0.0
2018-Feb-19 03:30N 34°22' W 119°30'0 0.0
2018-Feb-19 02:58N 34°22' W 119°30'3 6.9
2018-Feb-19 02:30N 34°20' W 119°33'0 0.7
2018-Feb-19 02:00N 34°20' W 119°33'3 6.9
2018-Feb-19 01:30N 34°23' W 119°31'1 2.7
2018-Feb-19 01:00N 34°22' W 119°31'3 5.0
2018-Feb-19 00:29N 34°20' W 119°34'0 0.8
2018-Feb-19 00:00N 34°20' W 119°34'2 3.2
2018-Feb-18 23:30N 34°20' W 119°36'0 0.3
2018-Feb-18 23:00N 34°20' W 119°36'0 0.0
2018-Feb-18 22:29N 34°20' W 119°36'0 0.0
2018-Feb-18 22:00N 34°20' W 119°36'0 0.0
2018-Feb-18 21:28N 34°20' W 119°36'0 0.1
2018-Feb-18 21:00N 34°20' W 119°36'3 5.7
2018-Feb-18 20:30N 34°20' W 119°33'4 8.0
2018-Feb-18 19:59N 34°20' W 119°28'2 3.0
2018-Feb-18 19:30N 34°21' W 119°26'816.0
2018-Feb-18 19:00N 34°20' W 119°36'2 4.1
2018-Feb-18 18:30N 34°20' W 119°38'0 0.2
2018-Feb-18 18:00N 34°20' W 119°38'1 1.0
2018-Feb-18 17:25N 34°20' W 119°37'0 0.3
2018-Feb-18 17:00N 34°20' W 119°37'0 0.3
2018-Feb-18 16:29N 34°20' W 119°37'1 1.1
2018-Feb-18 16:00N 34°20' W 119°38'0 0.2
2018-Feb-18 15:30N 34°20' W 119°38'0 0.3
2018-Feb-18 15:00N 34°20' W 119°38'713.2
2018-Feb-18 14:31N 34°23' W 119°31'0 0.7
2018-Feb-18 14:00N 34°23' W 119°31'1 1.4
2018-Feb-18 13:29N 34°22' W 119°30'0 0.0
2018-Feb-18 12:58N 34°22' W 119°30'0 0.0
2018-Feb-18 12:30N 34°22' W 119°30'0 0.0
2018-Feb-18 11:57N 34°22' W 119°30'0 0.0
2018-Feb-18 11:30N 34°22' W 119°30'0 0.0
2018-Feb-18 11:00N 34°22' W 119°30'0 0.0
2018-Feb-18 10:30N 34°22' W 119°30'0 0.0
2018-Feb-18 10:00N 34°22' W 119°30'0 0.0
2018-Feb-18 09:29N 34°22' W 119°30'0 0.0
2018-Feb-18 09:00N 34°22' W 119°30'0 0.0
2018-Feb-18 08:27N 34°22' W 119°30'0 0.0
2018-Feb-18 08:00N 34°22' W 119°30'0 0.0
2018-Feb-18 07:30N 34°22' W 119°30'0 0.0
2018-Feb-18 06:59N 34°22' W 119°30'0 0.0
2018-Feb-18 06:29N 34°22' W 119°30'0 0.0
2018-Feb-18 05:58N 34°22' W 119°30'0 0.0
2018-Feb-18 05:30N 34°22' W 119°30'0 0.0
2018-Feb-18 05:00N 34°22' W 119°30'0 0.0
2018-Feb-18 04:29N 34°22' W 119°30'0 0.0
2018-Feb-18 03:57N 34°22' W 119°30'0 0.0
2018-Feb-18 03:27N 34°22' W 119°30'0 0.0
2018-Feb-18 02:58N 34°22' W 119°30'2 4.3
2018-Feb-18 02:30N 34°21' W 119°32'1 1.2
2018-Feb-18 02:00N 34°21' W 119°32'3 5.3
2018-Feb-18 01:30N 34°23' W 119°30'0 0.1
2018-Feb-18 01:00N 34°23' W 119°30'0 0.0
2018-Feb-18 00:25N 34°23' W 119°30'0 0.1
2018-Feb-17 23:58N 34°23' W 119°30'4 7.8
2018-Feb-17 23:30N 34°20' W 119°33'2 5.1
2018-Feb-17 23:00N 34°20' W 119°36'0 0.3
2018-Feb-17 22:30N 34°20' W 119°36'0 0.0
2018-Feb-17 22:00N 34°20' W 119°36'0 0.9
2018-Feb-17 21:30N 34°20' W 119°36'610.6
2018-Feb-17 20:58N 34°24' W 119°42'0 0.0
2018-Feb-17 20:29N 34°24' W 119°42'0 0.0
2018-Feb-17 20:01N 34°24' W 119°42'1 3.0
2018-Feb-17 19:30N 34°24' W 119°40'612.4
2018-Feb-17 19:00N 34°20' W 119°34'0 1.0
2018-Feb-17 18:30N 34°20' W 119°34'2 3.7
2018-Feb-17 18:00N 34°20' W 119°37'1 1.4
2018-Feb-17 17:29N 34°20' W 119°37'0 0.0
2018-Feb-17 17:00N 34°20' W 119°37'0 0.0
2018-Feb-17 16:30N 34°20' W 119°37'510.3
2018-Feb-17 16:00N 34°22' W 119°31'1 1.3
2018-Feb-17 15:30N 34°21' W 119°32'5 9.3
2018-Feb-17 15:00N 34°20' W 119°37'612.6
2018-Feb-17 14:30N 34°23' W 119°31'0 0.4
2018-Feb-17 13:55N 34°23' W 119°31'1 1.9
2018-Feb-17 13:28N 34°22' W 119°30'0 0.0
2018-Feb-17 13:00N 34°22' W 119°30'0 0.0
2018-Feb-17 12:30N 34°22' W 119°30'0 0.0
2018-Feb-17 11:58N 34°22' W 119°30'0 0.0
2018-Feb-17 11:30N 34°22' W 119°30'0 0.0
2018-Feb-17 10:54N 34°22' W 119°30'0 0.0
2018-Feb-17 10:31N 34°22' W 119°30'0 0.0
2018-Feb-17 09:58N 34°22' W 119°30'0 0.0
2018-Feb-17 09:31N 34°22' W 119°30'0 0.0
2018-Feb-17 08:59N 34°22' W 119°30'0 0.0
2018-Feb-17 08:30N 34°22' W 119°30'0 0.0
2018-Feb-17 08:00N 34°22' W 119°30'0 0.0
2018-Feb-17 07:30N 34°22' W 119°30'0 0.0
2018-Feb-17 07:00N 34°22' W 119°30'0 0.0
2018-Feb-17 06:29N 34°22' W 119°30'0 0.0
2018-Feb-17 06:01N 34°22' W 119°30'0 0.0
2018-Feb-17 05:25N 34°22' W 119°30'0 0.0
2018-Feb-17 05:00N 34°22' W 119°30'0 0.0
2018-Feb-17 04:30N 34°22' W 119°30'0 0.0
2018-Feb-17 03:59N 34°22' W 119°30'0 0.0
2018-Feb-17 03:29N 34°22' W 119°30'0 0.0
2018-Feb-17 02:59N 34°22' W 119°30'612.8
2018-Feb-17 02:30N 34°20' W 119°37'611.4
2018-Feb-17 02:00N 34°23' W 119°31'1 1.3
2018-Feb-17 01:30N 34°23' W 119°30'0 0.0
2018-Feb-17 00:57N 34°23' W 119°30'0 0.0
2018-Feb-17 00:29N 34°22' W 119°30'0 0.0
2018-Feb-17 00:00N 34°23' W 119°30'2 3.8
2018-Feb-16 23:31N 34°21' W 119°32'510.3
2018-Feb-16 23:00N 34°20' W 119°38'4 6.9
2018-Feb-16 22:29N 34°17' W 119°35'0 0.4
2018-Feb-16 21:58N 34°17' W 119°35'0 0.0
2018-Feb-16 21:30N 34°17' W 119°35'0 0.0
2018-Feb-16 20:59N 34°17' W 119°35'3 5.5
2018-Feb-16 20:30N 34°19' W 119°33'1 2.4
2018-Feb-16 20:00N 34°20' W 119°32'4 7.5
2018-Feb-16 19:30N 34°18' W 119°36'2 4.1
2018-Feb-16 18:59N 34°20' W 119°36'0 0.0
2018-Feb-16 18:29N 34°20' W 119°36'0 0.4
2018-Feb-16 18:00N 34°20' W 119°36'0 0.6
2018-Feb-16 17:30N 34°20' W 119°36'510.3
2018-Feb-16 17:00N 34°23' W 119°30'2 4.3
2018-Feb-16 16:29N 34°21' W 119°32'5 9.2
2018-Feb-16 15:57N 34°17' W 119°35'3 7.8
2018-Feb-16 15:30N 34°20' W 119°38'1 1.8
2018-Feb-16 15:00N 34°20' W 119°37'611.4
2018-Feb-16 14:30N 34°23' W 119°31'0 0.1
2018-Feb-16 13:59N 34°23' W 119°31'1 1.4
2018-Feb-16 13:29N 34°22' W 119°30'0 0.0
2018-Feb-16 12:59N 34°22' W 119°30'0 0.0
2018-Feb-16 12:30N 34°22' W 119°30'0 0.0
2018-Feb-16 11:54N 34°22' W 119°30'0 0.1
2018-Feb-16 11:30N 34°22' W 119°30'612.2
2018-Feb-16 11:00N 34°20' W 119°37'0 0.4
2018-Feb-16 10:30N 34°20' W 119°36'0 0.0
2018-Feb-16 10:00N 34°20' W 119°36'0 0.0
2018-Feb-16 09:30N 34°20' W 119°36'0 0.0
2018-Feb-16 09:00N 34°20' W 119°36'0 0.0
2018-Feb-16 08:29N 34°20' W 119°36'0 0.0
2018-Feb-16 08:00N 34°20' W 119°36'0 0.0
2018-Feb-16 07:30N 34°20' W 119°36'0 0.0
2018-Feb-16 07:00N 34°20' W 119°36'0 0.0
2018-Feb-16 06:29N 34°20' W 119°36'0 0.0
2018-Feb-16 05:59N 34°20' W 119°36'0 0.1
2018-Feb-16 05:29N 34°20' W 119°36'0 0.0
2018-Feb-16 05:00N 34°20' W 119°36'0 0.0
2018-Feb-16 04:30N 34°20' W 119°36'0 0.5
2018-Feb-16 04:00N 34°20' W 119°36'4 7.9
2018-Feb-16 03:30N 34°22' W 119°32'4 8.5
2018-Feb-16 03:00N 34°20' W 119°36'611.7
2018-Feb-16 02:30N 34°23' W 119°30'0 0.0
2018-Feb-16 01:56N 34°23' W 119°30'1 1.7
2018-Feb-16 01:30N 34°22' W 119°30'0 0.0
2018-Feb-16 01:00N 34°22' W 119°30'1 1.4
2018-Feb-16 00:29N 34°23' W 119°30'3 6.6
2018-Feb-16 00:00N 34°20' W 119°32'4 8.2
2018-Feb-15 23:30N 34°20' W 119°37'3 6.1
2018-Feb-15 23:00N 34°20' W 119°34'3 6.1
2018-Feb-15 22:30N 34°17' W 119°35'3 5.8
2018-Feb-15 21:59N 34°20' W 119°34'0 0.2
2018-Feb-15 21:29N 34°20' W 119°34'3 6.1
2018-Feb-15 21:00N 34°17' W 119°36'3 5.6
2018-Feb-15 20:30N 34°20' W 119°37'0 0.0
2018-Feb-15 20:00N 34°20' W 119°37'0 0.5
2018-Feb-15 19:30N 34°20' W 119°37'1 1.3
2018-Feb-15 19:00N 34°20' W 119°38'1 2.8
2018-Feb-15 18:30N 34°20' W 119°36'0 1.0
2018-Feb-15 18:00N 34°20' W 119°37'611.9
2018-Feb-15 17:30N 34°23' W 119°31'0 0.1
2018-Feb-15 17:00N 34°23' W 119°30'0 0.7
2018-Feb-15 16:29N 34°23' W 119°31'3 5.5
2018-Feb-15 15:59N 34°20' W 119°32'3 6.7
2018-Feb-15 15:29N 34°19' W 119°36'1 1.6
2018-Feb-15 15:00N 34°20' W 119°36'611.4
2018-Feb-15 14:30N 34°23' W 119°30'0 0.9
2018-Feb-15 14:00N 34°23' W 119°31'3 5.5
2018-Feb-15 13:29N 34°20' W 119°33'1 1.7
2018-Feb-15 13:00N 34°20' W 119°34'0 0.0
2018-Feb-15 12:30N 34°20' W 119°34'0 0.0
2018-Feb-15 11:57N 34°20' W 119°34'0 0.0
2018-Feb-15 11:30N 34°20' W 119°34'0 0.0
2018-Feb-15 10:58N 34°20' W 119°34'0 0.0
2018-Feb-15 10:30N 34°20' W 119°34'0 0.0
2018-Feb-15 10:00N 34°20' W 119°34'0 0.0
2018-Feb-15 09:30N 34°20' W 119°34'0 0.0
2018-Feb-15 08:59N 34°20' W 119°34'0 0.0
2018-Feb-15 08:30N 34°20' W 119°34'0 0.0
2018-Feb-15 08:00N 34°20' W 119°34'0 0.0
2018-Feb-15 07:30N 34°20' W 119°34'0 0.0
2018-Feb-15 07:00N 34°20' W 119°34'0 0.0
2018-Feb-15 06:30N 34°20' W 119°34'0 0.0
2018-Feb-15 06:00N 34°20' W 119°34'0 0.0
2018-Feb-15 05:30N 34°20' W 119°34'0 0.0
2018-Feb-15 04:59N 34°20' W 119°34'1 1.9
2018-Feb-15 04:30N 34°20' W 119°35'1 1.2
2018-Feb-15 04:00N 34°20' W 119°36'3 4.6
2018-Feb-15 03:26N 34°21' W 119°33'4 8.1
2018-Feb-15 02:59N 34°20' W 119°37'612.7
2018-Feb-15 02:30N 34°23' W 119°31'0 0.4
2018-Feb-15 02:00N 34°23' W 119°31'1 1.3
2018-Feb-15 01:30N 34°22' W 119°30'0 0.0
2018-Feb-15 01:00N 34°22' W 119°30'1 1.4
2018-Feb-15 00:28N 34°23' W 119°30'0 0.0
2018-Feb-15 00:00N 34°23' W 119°30'5 9.7
2018-Feb-14 23:30N 34°20' W 119°35'0 0.5
2018-Feb-14 23:00N 34°20' W 119°35'2 3.5
2018-Feb-14 22:30N 34°18' W 119°36'2 3.1
2018-Feb-14 21:59N 34°20' W 119°37'1 1.9
2018-Feb-14 21:31N 34°20' W 119°38'3 5.0
2018-Feb-14 21:00N 34°22' W 119°37'4 8.3
2018-Feb-14 20:30N 34°24' W 119°42'0 0.0
2018-Feb-14 19:58N 34°24' W 119°42'0 0.0
2018-Feb-14 19:29N 34°24' W 119°42'0 0.3
2018-Feb-14 18:59N 34°24' W 119°41'612.7
2018-Feb-14 18:30N 34°20' W 119°36'0 0.0
2018-Feb-14 18:00N 34°20' W 119°36'0 0.8
2018-Feb-14 17:28N 34°20' W 119°37'1 2.0
2018-Feb-14 17:00N 34°20' W 119°38'3 6.5
2018-Feb-14 16:30N 34°20' W 119°34'3 6.3
2018-Feb-14 16:00N 34°22' W 119°31'510.7
2018-Feb-14 15:30N 34°18' W 119°36'2 4.1
2018-Feb-14 15:00N 34°20' W 119°37'612.1
2018-Feb-14 14:30N 34°23' W 119°30'1 1.1
2018-Feb-14 14:00N 34°23' W 119°31'1 1.6
2018-Feb-14 13:26N 34°22' W 119°30'0 0.0
2018-Feb-14 13:00N 34°22' W 119°30'0 0.0
2018-Feb-14 12:23N 34°22' W 119°30'0 0.0
2018-Feb-14 12:00N 34°22' W 119°30'0 0.0
2018-Feb-14 11:27N 34°22' W 119°30'0 0.0
2018-Feb-14 10:58N 34°22' W 119°30'0 0.0
2018-Feb-14 10:30N 34°22' W 119°30'0 0.0
2018-Feb-14 09:57N 34°22' W 119°30'0 0.0
2018-Feb-14 09:29N 34°22' W 119°30'0 0.0
2018-Feb-14 08:59N 34°22' W 119°30'0 0.0
2018-Feb-14 08:27N 34°22' W 119°30'0 0.0
2018-Feb-14 07:58N 34°22' W 119°30'0 0.0
2018-Feb-14 07:24N 34°22' W 119°30'0 0.0
2018-Feb-14 06:55N 34°22' W 119°30'0 0.0
2018-Feb-14 06:29N 34°22' W 119°30'0 0.0
2018-Feb-14 05:58N 34°22' W 119°30'0 0.0
2018-Feb-14 05:29N 34°22' W 119°30'0 0.0
2018-Feb-14 05:00N 34°22' W 119°30'0 0.0
2018-Feb-14 04:29N 34°22' W 119°30'0 0.0
2018-Feb-14 04:00N 34°22' W 119°30'1 1.4
2018-Feb-14 03:29N 34°23' W 119°30'612.6
2018-Feb-14 02:59N 34°20' W 119°37'612.9
2018-Feb-14 02:30N 34°23' W 119°31'0 1.0
2018-Feb-14 01:59N 34°23' W 119°30'0 0.4
2018-Feb-14 01:28N 34°23' W 119°30'0 0.0
2018-Feb-14 01:00N 34°23' W 119°30'0 0.0
2018-Feb-14 00:30N 34°23' W 119°30'0 0.0
2018-Feb-14 00:00N 34°23' W 119°30'3 6.7
2018-Feb-13 23:30N 34°20' W 119°33'3 6.3
2018-Feb-13 23:00N 34°20' W 119°37'3 4.7
2018-Feb-13 22:24N 34°17' W 119°35'0 0.1
2018-Feb-13 22:00N 34°17' W 119°35'3 5.8
2018-Feb-13 21:31N 34°20' W 119°37'0 0.7
2018-Feb-13 21:00N 34°20' W 119°36'1 0.2
2018-Feb-13 17:33N 34°20' W 119°37'0 0.0
2018-Feb-13 17:27N 34°20' W 119°37'3 7.4
2018-Feb-13 17:00N 34°20' W 119°33'4 7.3
2018-Feb-13 16:29N 34°23' W 119°30'0 0.0
2018-Feb-13 16:00N 34°23' W 119°30'4 8.1
2018-Feb-13 15:30N 34°20' W 119°34'2 4.1
2018-Feb-13 15:00N 34°20' W 119°36'610.7
2018-Feb-13 14:28N 34°23' W 119°30'0 0.0
2018-Feb-13 14:00N 34°23' W 119°30'1 1.3
2018-Feb-13 13:28N 34°22' W 119°30'0 0.0
2018-Feb-13 12:54N 34°22' W 119°30'0 0.0
2018-Feb-13 12:29N 34°22' W 119°30'0 0.0
2018-Feb-13 11:58N 34°22' W 119°30'0 0.0
2018-Feb-13 11:28N 34°22' W 119°30'0 0.0
2018-Feb-13 10:59N 34°22' W 119°30'0 0.0
2018-Feb-13 10:30N 34°22' W 119°30'0 0.0
2018-Feb-13 09:59N 34°22' W 119°30'0 0.0
2018-Feb-13 09:28N 34°22' W 119°30'0 0.0
2018-Feb-13 08:58N 34°22' W 119°30'0 0.0
2018-Feb-13 08:30N 34°22' W 119°30'0 0.0
2018-Feb-13 07:59N 34°22' W 119°30'0 0.0
2018-Feb-13 07:30N 34°22' W 119°30'510.6
2018-Feb-13 07:00N 34°23' W 119°36'4 8.0
2018-Feb-13 06:27N 34°24' W 119°42'0 0.0
2018-Feb-13 05:49N 34°24' W 119°42'0 0.0
2018-Feb-13 05:27N 34°24' W 119°42'0 0.0
2018-Feb-13 05:00N 34°24' W 119°42'4 8.0
2018-Feb-13 04:30N 34°23' W 119°37'510.2
2018-Feb-13 04:00N 34°23' W 119°31'612.5
2018-Feb-13 03:30N 34°20' W 119°37'4 7.2
2018-Feb-13 02:59N 34°20' W 119°33'3 6.5
2018-Feb-13 02:30N 34°23' W 119°30'0 0.0
2018-Feb-13 02:00N 34°23' W 119°30'0 0.7
2018-Feb-13 01:30N 34°22' W 119°30'0 0.0
2018-Feb-13 00:56N 34°22' W 119°30'1 1.6
2018-Feb-13 00:28N 34°23' W 119°30'2 5.0
2018-Feb-13 00:00N 34°21' W 119°32'4 8.4
2018-Feb-12 23:30N 34°20' W 119°37'1 1.2
2018-Feb-12 22:59N 34°20' W 119°36'0 0.6
2018-Feb-12 22:30N 34°20' W 119°36'1 2.4
2018-Feb-12 22:00N 34°19' W 119°36'2 4.0
2018-Feb-12 21:29N 34°20' W 119°38'0 0.0
2018-Feb-12 21:00N 34°20' W 119°38'0 0.0
2018-Feb-12 20:30N 34°20' W 119°38'0 0.0
2018-Feb-12 20:00N 34°20' W 119°38'0 0.1
2018-Feb-12 19:30N 34°20' W 119°38'3 6.7
2018-Feb-12 19:00N 34°18' W 119°35'5 9.5
2018-Feb-12 18:30N 34°22' W 119°37'4 8.4
2018-Feb-12 18:00N 34°24' W 119°42'0 0.0
2018-Feb-12 17:30N 34°24' W 119°42'611.6
2018-Feb-12 17:00N 34°21' W 119°36'1 1.5
2018-Feb-12 16:29N 34°20' W 119°36'510.7
2018-Feb-12 16:00N 34°23' W 119°31'612.3
2018-Feb-12 15:29N 34°18' W 119°35'2 3.4
2018-Feb-12 14:58N 34°20' W 119°35'510.8
2018-Feb-12 14:29N 34°23' W 119°30'0 0.5
2018-Feb-12 13:57N 34°23' W 119°31'1 1.1
2018-Feb-12 13:27N 34°22' W 119°30'0 0.0
2018-Feb-12 12:47N 34°22' W 119°30'0 0.0
2018-Feb-12 12:28N 34°22' W 119°30'0 0.0
2018-Feb-12 11:56N 34°22' W 119°30'0 0.0
2018-Feb-12 11:28N 34°22' W 119°30'0 0.0
2018-Feb-12 10:59N 34°22' W 119°30'0 0.0
2018-Feb-12 10:29N 34°22' W 119°30'0 0.0
2018-Feb-12 10:00N 34°22' W 119°30'0 0.0
2018-Feb-12 09:30N 34°22' W 119°30'0 0.0
2018-Feb-12 09:00N 34°22' W 119°30'0 0.0
2018-Feb-12 08:28N 34°22' W 119°30'0 0.0
2018-Feb-12 08:00N 34°22' W 119°30'0 0.0
2018-Feb-12 07:29N 34°22' W 119°30'0 0.0
2018-Feb-12 07:00N 34°22' W 119°30'0 0.0
2018-Feb-12 06:22N 34°22' W 119°30'0 0.0
2018-Feb-12 05:59N 34°22' W 119°30'0 0.0
2018-Feb-12 05:26N 34°22' W 119°30'0 0.0
2018-Feb-12 04:58N 34°22' W 119°30'0 0.0
2018-Feb-12 04:29N 34°23' W 119°30'0 0.0
2018-Feb-12 03:58N 34°22' W 119°30'0 0.0
2018-Feb-12 03:24N 34°22' W 119°30'0 0.0
2018-Feb-12 03:00N 34°22' W 119°30'4 8.1
2018-Feb-12 02:30N 34°20' W 119°34'2 3.0
2018-Feb-12 01:58N 34°21' W 119°32'1 1.5
2018-Feb-12 01:30N 34°21' W 119°33'1 1.7
2018-Feb-12 00:59N 34°20' W 119°34'0 0.0
2018-Feb-12 00:30N 34°20' W 119°34'0 0.0
2018-Feb-12 00:00N 34°20' W 119°34'2 4.5
2018-Feb-11 23:30N 34°20' W 119°36'0 0.3
2018-Feb-11 22:59N 34°20' W 119°36'0 0.0
2018-Feb-11 22:29N 34°20' W 119°36'0 0.3
2018-Feb-11 22:00N 34°20' W 119°36'0 0.2
2018-Feb-11 21:28N 34°20' W 119°36'0 0.0
2018-Feb-11 21:00N 34°20' W 119°36'0 0.0
2018-Feb-11 20:30N 34°20' W 119°36'0 0.0
2018-Feb-11 19:57N 34°20' W 119°36'0 0.0
2018-Feb-11 19:30N 34°20' W 119°36'0 0.0
2018-Feb-11 19:00N 34°20' W 119°36'0 0.0
2018-Feb-11 18:30N 34°20' W 119°36'0 0.0
2018-Feb-11 17:59N 34°20' W 119°36'0 0.0
2018-Feb-11 17:28N 34°20' W 119°36'0 0.1
2018-Feb-11 16:59N 34°20' W 119°36'0 0.0
2018-Feb-11 16:30N 34°20' W 119°36'0 0.0
2018-Feb-11 16:00N 34°20' W 119°36'0 0.0
2018-Feb-11 15:28N 34°20' W 119°36'1 1.9
2018-Feb-11 15:00N 34°20' W 119°37'612.5
2018-Feb-11 14:29N 34°23' W 119°30'0 0.6
2018-Feb-11 13:59N 34°23' W 119°31'1 1.3
2018-Feb-11 13:30N 34°22' W 119°30'0 0.0
2018-Feb-11 12:57N 34°22' W 119°30'0 0.0
2018-Feb-11 12:25N 34°22' W 119°30'0 0.0
2018-Feb-11 11:58N 34°22' W 119°30'0 0.0
2018-Feb-11 11:28N 34°22' W 119°30'0 0.0
2018-Feb-11 11:00N 34°22' W 119°30'0 0.0
2018-Feb-11 10:29N 34°22' W 119°30'0 0.0
2018-Feb-11 09:58N 34°22' W 119°30'0 0.0
2018-Feb-11 09:29N 34°22' W 119°30'0 0.0
2018-Feb-11 08:59N 34°22' W 119°30'0 0.0
2018-Feb-11 08:30N 34°22' W 119°30'0 0.0
2018-Feb-11 07:59N 34°22' W 119°30'0 0.0
2018-Feb-11 07:29N 34°22' W 119°30'0 0.0
2018-Feb-11 06:58N 34°22' W 119°30'0 0.0
2018-Feb-11 06:28N 34°22' W 119°30'0 0.0
2018-Feb-11 06:00N 34°22' W 119°30'0 0.0
2018-Feb-11 05:29N 34°22' W 119°30'0 0.0
2018-Feb-11 04:59N 34°22' W 119°30'0 0.0
2018-Feb-11 04:26N 34°22' W 119°30'0 0.0
2018-Feb-11 04:00N 34°22' W 119°30'0 0.0
2018-Feb-11 03:29N 34°22' W 119°30'0 0.0
2018-Feb-11 02:59N 34°22' W 119°30'510.7
2018-Feb-11 02:30N 34°20' W 119°35'4 7.1
2018-Feb-11 02:01N 34°22' W 119°32'1 2.5
2018-Feb-11 01:29N 34°23' W 119°31'611.8
2018-Feb-11 00:58N 34°20' W 119°38'1 2.3
2018-Feb-11 00:29N 34°20' W 119°36'0 0.0
2018-Feb-11 00:00N 34°20' W 119°36'0 0.0
2018-Feb-10 23:27N 34°20' W 119°36'0 0.0
2018-Feb-10 23:00N 34°20' W 119°36'0 0.1
2018-Feb-10 22:28N 34°20' W 119°36'0 0.0
2018-Feb-10 22:00N 34°20' W 119°36'0 0.0
2018-Feb-10 21:30N 34°20' W 119°36'2 3.7
2018-Feb-10 20:59N 34°22' W 119°37'5 9.4
2018-Feb-10 20:30N 34°24' W 119°42'0 0.0
2018-Feb-10 19:57N 34°24' W 119°42'0 0.0
2018-Feb-10 19:27N 34°24' W 119°42'3 7.6
2018-Feb-10 19:00N 34°23' W 119°38'713.6
2018-Feb-10 18:29N 34°20' W 119°30'2 4.9
2018-Feb-10 17:59N 34°20' W 119°33'4 8.1
2018-Feb-10 17:30N 34°20' W 119°37'3 6.2
2018-Feb-10 17:00N 34°20' W 119°34'4 7.1
2018-Feb-10 16:30N 34°23' W 119°31'1 1.0
2018-Feb-10 16:00N 34°23' W 119°30'2 3.6
2018-Feb-10 15:30N 34°22' W 119°32'5 9.8
2018-Feb-10 15:00N 34°20' W 119°37'613.2
2018-Feb-10 14:30N 34°23' W 119°30'0 0.5
2018-Feb-10 14:00N 34°23' W 119°31'1 1.1
2018-Feb-10 13:27N 34°22' W 119°30'0 0.0
2018-Feb-10 12:59N 34°22' W 119°30'0 0.0
2018-Feb-10 12:30N 34°22' W 119°30'0 0.0
2018-Feb-10 11:57N 34°22' W 119°30'0 0.0
2018-Feb-10 11:30N 34°22' W 119°30'0 0.0
2018-Feb-10 10:58N 34°22' W 119°30'0 0.0
2018-Feb-10 10:28N 34°22' W 119°30'0 0.0
2018-Feb-10 09:59N 34°22' W 119°30'0 0.0
2018-Feb-10 09:27N 34°22' W 119°30'0 0.0
2018-Feb-10 08:56N 34°22' W 119°30'0 0.0
2018-Feb-10 08:29N 34°22' W 119°30'0 0.0
2018-Feb-10 07:57N 34°22' W 119°30'0 0.0
2018-Feb-10 07:26N 34°22' W 119°30'0 0.0
2018-Feb-10 06:58N 34°22' W 119°30'0 0.0
2018-Feb-10 06:27N 34°22' W 119°30'0 0.0
2018-Feb-10 06:00N 34°22' W 119°30'0 0.0
2018-Feb-10 05:29N 34°22' W 119°30'0 0.0
2018-Feb-10 05:00N 34°22' W 119°30'0 0.0
2018-Feb-10 04:30N 34°22' W 119°30'0 0.0
2018-Feb-10 04:00N 34°22' W 119°30'0 0.0
2018-Feb-10 03:29N 34°22' W 119°30'0 0.0
2018-Feb-10 03:00N 34°22' W 119°30'5 9.5
2018-Feb-10 02:30N 34°20' W 119°35'2 4.9
2018-Feb-10 02:00N 34°21' W 119°32'2 4.5
2018-Feb-10 01:30N 34°23' W 119°30'0 0.0
2018-Feb-10 01:00N 34°23' W 119°30'  
Track history (hours):
 
Tides and Currents Weather Stations Pressure Air Temp Water Temp Dewpoint Dewpoint Depression Visibility Wind Speed Wind Dir Waves Ship Positions

Alan T

Owner: SO CAL SHIP SERVICES, INC, TERMINAL ISLAND, CA. More information available from US FCC via Universal Licensing System and Coast Guard Vessel Documentation Center.

Last reported at 2018-Feb-20 01:00 UTC. Time now 2018-Feb-20 01:26 UTC.
Position N 34°22' W 119°30'.

Length 30 m; draft 2.5 m.

Type: Ship (hazmat cat B). MMSI: 367104060.

Date/timePositionNaut miles runAvg speedWind from/ knotsBaromVisibWave heightAir tempDewpointWater temp
2018-Feb-20 01:00N 34°22' W 119°30'0 0.0
2018-Feb-20 00:30N 34°22' W 119°30'0 0.0
2018-Feb-19 23:59N 34°22' W 119°30'4 7.5
2018-Feb-19 23:30N 34°20' W 119°33'4 7.0
2018-Feb-19 22:59N 34°20' W 119°38'3 6.3
2018-Feb-19 22:29N 34°20' W 119°34'2 5.2
2018-Feb-19 22:00N 34°20' W 119°37'2 4.5
2018-Feb-19 21:29N 34°20' W 119°34'4 8.5
2018-Feb-19 21:00N 34°23' W 119°30'713.1
2018-Feb-19 20:30N 34°20' W 119°38'0 0.3
2018-Feb-19 20:00N 34°20' W 119°37'1 1.8
2018-Feb-19 19:30N 34°20' W 119°36'2 3.8
2018-Feb-19 19:00N 34°20' W 119°34'3 6.3
2018-Feb-19 18:30N 34°20' W 119°38'1 1.7
2018-Feb-19 18:00N 34°20' W 119°37'5 9.3
2018-Feb-19 17:30N 34°21' W 119°32'2 3.5
2018-Feb-19 17:00N 34°23' W 119°30'2 4.3
2018-Feb-19 16:30N 34°21' W 119°32'4 8.9
2018-Feb-19 16:01N 34°20' W 119°37'0 0.3
2018-Feb-19 15:30N 34°20' W 119°37'1 1.8
2018-Feb-19 15:00N 34°20' W 119°36'510.6
2018-Feb-19 14:30N 34°23' W 119°30'0 0.0
2018-Feb-19 14:00N 34°23' W 119°30'1 1.1
2018-Feb-19 13:19N 34°22' W 119°30'0 0.0
2018-Feb-19 12:58N 34°22' W 119°30'0 0.0
2018-Feb-19 12:30N 34°22' W 119°30'0 0.0
2018-Feb-19 11:59N 34°22' W 119°30'0 0.0
2018-Feb-19 11:30N 34°22' W 119°30'0 0.0
2018-Feb-19 10:59N 34°22' W 119°30'0 0.0
2018-Feb-19 10:29N 34°22' W 119°30'0 0.0
2018-Feb-19 09:59N 34°22' W 119°30'0 0.0
2018-Feb-19 09:27N 34°22' W 119°30'0 0.0
2018-Feb-19 08:56N 34°22' W 119°30'0 0.0
2018-Feb-19 08:25N 34°22' W 119°30'0 0.0
2018-Feb-19 07:58N 34°22' W 119°30'0 0.0
2018-Feb-19 07:29N 34°22' W 119°30'0 0.0
2018-Feb-19 07:00N 34°22' W 119°30'0 0.0
2018-Feb-19 06:30N 34°22' W 119°30'0 0.0
2018-Feb-19 05:58N 34°22' W 119°30'0 0.0
2018-Feb-19 05:27N 34°22' W 119°30'0 0.0
2018-Feb-19 04:59N 34°22' W 119°30'0 0.0
2018-Feb-19 04:30N 34°22' W 119°30'0 0.0
2018-Feb-19 04:00N 34°22' W 119°30'0 0.0
2018-Feb-19 03:30N 34°22' W 119°30'0 0.0
2018-Feb-19 02:58N 34°22' W 119°30'3 6.9
2018-Feb-19 02:30N 34°20' W 119°33'0 0.7
2018-Feb-19 02:00N 34°20' W 119°33'3 6.9
2018-Feb-19 01:30N 34°23' W 119°31'1 2.7
2018-Feb-19 01:00N 34°22' W 119°31'3 5.0
2018-Feb-19 00:29N 34°20' W 119°34'0 0.8
2018-Feb-19 00:00N 34°20' W 119°34'2 3.2
2018-Feb-18 23:30N 34°20' W 119°36'0 0.3
2018-Feb-18 23:00N 34°20' W 119°36'0 0.0
2018-Feb-18 22:29N 34°20' W 119°36'0 0.0
2018-Feb-18 22:00N 34°20' W 119°36'0 0.0
2018-Feb-18 21:28N 34°20' W 119°36'0 0.1
2018-Feb-18 21:00N 34°20' W 119°36'3 5.7
2018-Feb-18 20:30N 34°20' W 119°33'4 8.0
2018-Feb-18 19:59N 34°20' W 119°28'2 3.0
2018-Feb-18 19:30N 34°21' W 119°26'816.0
2018-Feb-18 19:00N 34°20' W 119°36'2 4.1
2018-Feb-18 18:30N 34°20' W 119°38'0 0.2
2018-Feb-18 18:00N 34°20' W 119°38'1 1.0
2018-Feb-18 17:25N 34°20' W 119°37'0 0.3
2018-Feb-18 17:00N 34°20' W 119°37'0 0.3
2018-Feb-18 16:29N 34°20' W 119°37'1 1.1
2018-Feb-18 16:00N 34°20' W 119°38'0 0.2
2018-Feb-18 15:30N 34°20' W 119°38'0 0.3
2018-Feb-18 15:00N 34°20' W 119°38'713.2
2018-Feb-18 14:31N 34°23' W 119°31'0 0.7
2018-Feb-18 14:00N 34°23' W 119°31'1 1.4
2018-Feb-18 13:29N 34°22' W 119°30'0 0.0
2018-Feb-18 12:58N 34°22' W 119°30'0 0.0
2018-Feb-18 12:30N 34°22' W 119°30'0 0.0
2018-Feb-18 11:57N 34°22' W 119°30'0 0.0
2018-Feb-18 11:30N 34°22' W 119°30'0 0.0
2018-Feb-18 11:00N 34°22' W 119°30'0 0.0
2018-Feb-18 10:30N 34°22' W 119°30'0 0.0
2018-Feb-18 10:00N 34°22' W 119°30'0 0.0
2018-Feb-18 09:29N 34°22' W 119°30'0 0.0
2018-Feb-18 09:00N 34°22' W 119°30'0 0.0
2018-Feb-18 08:27N 34°22' W 119°30'0 0.0
2018-Feb-18 08:00N 34°22' W 119°30'0 0.0
2018-Feb-18 07:30N 34°22' W 119°30'0 0.0
2018-Feb-18 06:59N 34°22' W 119°30'0 0.0
2018-Feb-18 06:29N 34°22' W 119°30'0 0.0
2018-Feb-18 05:58N 34°22' W 119°30'0 0.0
2018-Feb-18 05:30N 34°22' W 119°30'0 0.0
2018-Feb-18 05:00N 34°22' W 119°30'0 0.0
2018-Feb-18 04:29N 34°22' W 119°30'0 0.0
2018-Feb-18 03:57N 34°22' W 119°30'0 0.0
2018-Feb-18 03:27N 34°22' W 119°30'0 0.0
2018-Feb-18 02:58N 34°22' W 119°30'2 4.3
2018-Feb-18 02:30N 34°21' W 119°32'1 1.2
2018-Feb-18 02:00N 34°21' W 119°32'3 5.3
2018-Feb-18 01:30N 34°23' W 119°30'0 0.1
2018-Feb-18 01:00N 34°23' W 119°30'0 0.0
2018-Feb-18 00:25N 34°23' W 119°30'0 0.1
2018-Feb-17 23:58N 34°23' W 119°30'4 7.8
2018-Feb-17 23:30N 34°20' W 119°33'2 5.1
2018-Feb-17 23:00N 34°20' W 119°36'0 0.3
2018-Feb-17 22:30N 34°20' W 119°36'0 0.0
2018-Feb-17 22:00N 34°20' W 119°36'0 0.9
2018-Feb-17 21:30N 34°20' W 119°36'610.6
2018-Feb-17 20:58N 34°24' W 119°42'0 0.0
2018-Feb-17 20:29N 34°24' W 119°42'0 0.0
2018-Feb-17 20:01N 34°24' W 119°42'1 3.0
2018-Feb-17 19:30N 34°24' W 119°40'612.4
2018-Feb-17 19:00N 34°20' W 119°34'0 1.0
2018-Feb-17 18:30N 34°20' W 119°34'2 3.7
2018-Feb-17 18:00N 34°20' W 119°37'1 1.4
2018-Feb-17 17:29N 34°20' W 119°37'0 0.0
2018-Feb-17 17:00N 34°20' W 119°37'0 0.0
2018-Feb-17 16:30N 34°20' W 119°37'510.3
2018-Feb-17 16:00N 34°22' W 119°31'1 1.3
2018-Feb-17 15:30N 34°21' W 119°32'5 9.3
2018-Feb-17 15:00N 34°20' W 119°37'612.6
2018-Feb-17 14:30N 34°23' W 119°31'0 0.4
2018-Feb-17 13:55N 34°23' W 119°31'1 1.9
2018-Feb-17 13:28N 34°22' W 119°30'0 0.0
2018-Feb-17 13:00N 34°22' W 119°30'0 0.0
2018-Feb-17 12:30N 34°22' W 119°30'0 0.0
2018-Feb-17 11:58N 34°22' W 119°30'0 0.0
2018-Feb-17 11:30N 34°22' W 119°30'0 0.0
2018-Feb-17 10:54N 34°22' W 119°30'0 0.0
2018-Feb-17 10:31N 34°22' W 119°30'0 0.0
2018-Feb-17 09:58N 34°22' W 119°30'0 0.0
2018-Feb-17 09:31N 34°22' W 119°30'0 0.0
2018-Feb-17 08:59N 34°22' W 119°30'0 0.0
2018-Feb-17 08:30N 34°22' W 119°30'0 0.0
2018-Feb-17 08:00N 34°22' W 119°30'0 0.0
2018-Feb-17 07:30N 34°22' W 119°30'0 0.0
2018-Feb-17 07:00N 34°22' W 119°30'0 0.0
2018-Feb-17 06:29N 34°22' W 119°30'0 0.0
2018-Feb-17 06:01N 34°22' W 119°30'0 0.0
2018-Feb-17 05:25N 34°22' W 119°30'0 0.0
2018-Feb-17 05:00N 34°22' W 119°30'0 0.0
2018-Feb-17 04:30N 34°22' W 119°30'0 0.0
2018-Feb-17 03:59N 34°22' W 119°30'0 0.0
2018-Feb-17 03:29N 34°22' W 119°30'0 0.0
2018-Feb-17 02:59N 34°22' W 119°30'612.8
2018-Feb-17 02:30N 34°20' W 119°37'611.4
2018-Feb-17 02:00N 34°23' W 119°31'1 1.3
2018-Feb-17 01:30N 34°23' W 119°30'0 0.0
2018-Feb-17 00:57N 34°23' W 119°30'0 0.0
2018-Feb-17 00:29N 34°22' W 119°30'0 0.0
2018-Feb-17 00:00N 34°23' W 119°30'2 3.8
2018-Feb-16 23:31N 34°21' W 119°32'510.3
2018-Feb-16 23:00N 34°20' W 119°38'4 6.9
2018-Feb-16 22:29N 34°17' W 119°35'0 0.4
2018-Feb-16 21:58N 34°17' W 119°35'0 0.0
2018-Feb-16 21:30N 34°17' W 119°35'0 0.0
2018-Feb-16 20:59N 34°17' W 119°35'3 5.5
2018-Feb-16 20:30N 34°19' W 119°33'1 2.4
2018-Feb-16 20:00N 34°20' W 119°32'4 7.5
2018-Feb-16 19:30N 34°18' W 119°36'2 4.1
2018-Feb-16 18:59N 34°20' W 119°36'0 0.0
2018-Feb-16 18:29N 34°20' W 119°36'0 0.4
2018-Feb-16 18:00N 34°20' W 119°36'0 0.6
2018-Feb-16 17:30N 34°20' W 119°36'510.3
2018-Feb-16 17:00N 34°23' W 119°30'2 4.3
2018-Feb-16 16:29N 34°21' W 119°32'5 9.2
2018-Feb-16 15:57N 34°17' W 119°35'3 7.8
2018-Feb-16 15:30N 34°20' W 119°38'1 1.8
2018-Feb-16 15:00N 34°20' W 119°37'611.4
2018-Feb-16 14:30N 34°23' W 119°31'0 0.1
2018-Feb-16 13:59N 34°23' W 119°31'1 1.4
2018-Feb-16 13:29N 34°22' W 119°30'0 0.0
2018-Feb-16 12:59N 34°22' W 119°30'0 0.0
2018-Feb-16 12:30N 34°22' W 119°30'0 0.0
2018-Feb-16 11:54N 34°22' W 119°30'0 0.1
2018-Feb-16 11:30N 34°22' W 119°30'612.2
2018-Feb-16 11:00N 34°20' W 119°37'0 0.4
2018-Feb-16 10:30N 34°20' W 119°36'0 0.0
2018-Feb-16 10:00N 34°20' W 119°36'0 0.0
2018-Feb-16 09:30N 34°20' W 119°36'0 0.0
2018-Feb-16 09:00N 34°20' W 119°36'0 0.0
2018-Feb-16 08:29N 34°20' W 119°36'0 0.0
2018-Feb-16 08:00N 34°20' W 119°36'0 0.0
2018-Feb-16 07:30N 34°20' W 119°36'0 0.0
2018-Feb-16 07:00N 34°20' W 119°36'0 0.0
2018-Feb-16 06:29N 34°20' W 119°36'0 0.0
2018-Feb-16 05:59N 34°20' W 119°36'0 0.1
2018-Feb-16 05:29N 34°20' W 119°36'0 0.0
2018-Feb-16 05:00N 34°20' W 119°36'0 0.0
2018-Feb-16 04:30N 34°20' W 119°36'0 0.5
2018-Feb-16 04:00N 34°20' W 119°36'4 7.9
2018-Feb-16 03:30N 34°22' W 119°32'4 8.5
2018-Feb-16 03:00N 34°20' W 119°36'611.7
2018-Feb-16 02:30N 34°23' W 119°30'0 0.0
2018-Feb-16 01:56N 34°23' W 119°30'1 1.7
2018-Feb-16 01:30N 34°22' W 119°30'0 0.0
2018-Feb-16 01:00N 34°22' W 119°30'1 1.4
2018-Feb-16 00:29N 34°23' W 119°30'3 6.6
2018-Feb-16 00:00N 34°20' W 119°32'4 8.2
2018-Feb-15 23:30N 34°20' W 119°37'3 6.1
2018-Feb-15 23:00N 34°20' W 119°34'3 6.1
2018-Feb-15 22:30N 34°17' W 119°35'3 5.8
2018-Feb-15 21:59N 34°20' W 119°34'0 0.2
2018-Feb-15 21:29N 34°20' W 119°34'3 6.1
2018-Feb-15 21:00N 34°17' W 119°36'3 5.6
2018-Feb-15 20:30N 34°20' W 119°37'0 0.0
2018-Feb-15 20:00N 34°20' W 119°37'0 0.5
2018-Feb-15 19:30N 34°20' W 119°37'1 1.3
2018-Feb-15 19:00N 34°20' W 119°38'1 2.8
2018-Feb-15 18:30N 34°20' W 119°36'0 1.0
2018-Feb-15 18:00N 34°20' W 119°37'611.9
2018-Feb-15 17:30N 34°23' W 119°31'0 0.1
2018-Feb-15 17:00N 34°23' W 119°30'0 0.7
2018-Feb-15 16:29N 34°23' W 119°31'3 5.5
2018-Feb-15 15:59N 34°20' W 119°32'3 6.7
2018-Feb-15 15:29N 34°19' W 119°36'1 1.6
2018-Feb-15 15:00N 34°20' W 119°36'611.4
2018-Feb-15 14:30N 34°23' W 119°30'0 0.9
2018-Feb-15 14:00N 34°23' W 119°31'3 5.5
2018-Feb-15 13:29N 34°20' W 119°33'1 1.7
2018-Feb-15 13:00N 34°20' W 119°34'0 0.0
2018-Feb-15 12:30N 34°20' W 119°34'0 0.0
2018-Feb-15 11:57N 34°20' W 119°34'0 0.0
2018-Feb-15 11:30N 34°20' W 119°34'0 0.0
2018-Feb-15 10:58N 34°20' W 119°34'0 0.0
2018-Feb-15 10:30N 34°20' W 119°34'0 0.0
2018-Feb-15 10:00N 34°20' W 119°34'0 0.0
2018-Feb-15 09:30N 34°20' W 119°34'0 0.0
2018-Feb-15 08:59N 34°20' W 119°34'0 0.0
2018-Feb-15 08:30N 34°20' W 119°34'0 0.0
2018-Feb-15 08:00N 34°20' W 119°34'0 0.0
2018-Feb-15 07:30N 34°20' W 119°34'0 0.0
2018-Feb-15 07:00N 34°20' W 119°34'0 0.0
2018-Feb-15 06:30N 34°20' W 119°34'0 0.0
2018-Feb-15 06:00N 34°20' W 119°34'0 0.0
2018-Feb-15 05:30N 34°20' W 119°34'0 0.0
2018-Feb-15 04:59N 34°20' W 119°34'1 1.9
2018-Feb-15 04:30N 34°20' W 119°35'1 1.2
2018-Feb-15 04:00N 34°20' W 119°36'3 4.6
2018-Feb-15 03:26N 34°21' W 119°33'4 8.1
2018-Feb-15 02:59N 34°20' W 119°37'612.7
2018-Feb-15 02:30N 34°23' W 119°31'0 0.4
2018-Feb-15 02:00N 34°23' W 119°31'1 1.3
2018-Feb-15 01:30N 34°22' W 119°30'0 0.0
2018-Feb-15 01:00N 34°22' W 119°30'1 1.4
2018-Feb-15 00:28N 34°23' W 119°30'0 0.0
2018-Feb-15 00:00N 34°23' W 119°30'5 9.7
2018-Feb-14 23:30N 34°20' W 119°35'0 0.5
2018-Feb-14 23:00N 34°20' W 119°35'2 3.5
2018-Feb-14 22:30N 34°18' W 119°36'2 3.1
2018-Feb-14 21:59N 34°20' W 119°37'1 1.9
2018-Feb-14 21:31N 34°20' W 119°38'3 5.0
2018-Feb-14 21:00N 34°22' W 119°37'4 8.3
2018-Feb-14 20:30N 34°24' W 119°42'0 0.0
2018-Feb-14 19:58N 34°24' W 119°42'0 0.0
2018-Feb-14 19:29N 34°24' W 119°42'0 0.3
2018-Feb-14 18:59N 34°24' W 119°41'612.7
2018-Feb-14 18:30N 34°20' W 119°36'0 0.0
2018-Feb-14 18:00N 34°20' W 119°36'0 0.8
2018-Feb-14 17:28N 34°20' W 119°37'1 2.0
2018-Feb-14 17:00N 34°20' W 119°38'3 6.5
2018-Feb-14 16:30N 34°20' W 119°34'3 6.3
2018-Feb-14 16:00N 34°22' W 119°31'510.7
2018-Feb-14 15:30N 34°18' W 119°36'2 4.1
2018-Feb-14 15:00N 34°20' W 119°37'612.1
2018-Feb-14 14:30N 34°23' W 119°30'1 1.1
2018-Feb-14 14:00N 34°23' W 119°31'1 1.6
2018-Feb-14 13:26N 34°22' W 119°30'0 0.0
2018-Feb-14 13:00N 34°22' W 119°30'0 0.0
2018-Feb-14 12:23N 34°22' W 119°30'0 0.0
2018-Feb-14 12:00N 34°22' W 119°30'0 0.0
2018-Feb-14 11:27N 34°22' W 119°30'0 0.0
2018-Feb-14 10:58N 34°22' W 119°30'0 0.0
2018-Feb-14 10:30N 34°22' W 119°30'0 0.0
2018-Feb-14 09:57N 34°22' W 119°30'0 0.0
2018-Feb-14 09:29N 34°22' W 119°30'0 0.0
2018-Feb-14 08:59N 34°22' W 119°30'0 0.0
2018-Feb-14 08:27N 34°22' W 119°30'0 0.0
2018-Feb-14 07:58N 34°22' W 119°30'0 0.0
2018-Feb-14 07:24N 34°22' W 119°30'0 0.0
2018-Feb-14 06:55N 34°22' W 119°30'0 0.0
2018-Feb-14 06:29N 34°22' W 119°30'0 0.0
2018-Feb-14 05:58N 34°22' W 119°30'0 0.0
2018-Feb-14 05:29N 34°22' W 119°30'0 0.0
2018-Feb-14 05:00N 34°22' W 119°30'0 0.0
2018-Feb-14 04:29N 34°22' W 119°30'0 0.0
2018-Feb-14 04:00N 34°22' W 119°30'1 1.4
2018-Feb-14 03:29N 34°23' W 119°30'612.6
2018-Feb-14 02:59N 34°20' W 119°37'612.9
2018-Feb-14 02:30N 34°23' W 119°31'0 1.0
2018-Feb-14 01:59N 34°23' W 119°30'0 0.4
2018-Feb-14 01:28N 34°23' W 119°30'0 0.0
2018-Feb-14 01:00N 34°23' W 119°30'0 0.0
2018-Feb-14 00:30N 34°23' W 119°30'0 0.0
2018-Feb-14 00:00N 34°23' W 119°30'3 6.7
2018-Feb-13 23:30N 34°20' W 119°33'3 6.3
2018-Feb-13 23:00N 34°20' W 119°37'3 4.7
2018-Feb-13 22:24N 34°17' W 119°35'0 0.1
2018-Feb-13 22:00N 34°17' W 119°35'3 5.8
2018-Feb-13 21:31N 34°20' W 119°37'0 0.7
2018-Feb-13 21:00N 34°20' W 119°36'1 0.2
2018-Feb-13 17:33N 34°20' W 119°37'0 0.0
2018-Feb-13 17:27N 34°20' W 119°37'3 7.4
2018-Feb-13 17:00N 34°20' W 119°33'4 7.3
2018-Feb-13 16:29N 34°23' W 119°30'0 0.0
2018-Feb-13 16:00N 34°23' W 119°30'4 8.1
2018-Feb-13 15:30N 34°20' W 119°34'2 4.1
2018-Feb-13 15:00N 34°20' W 119°36'610.7
2018-Feb-13 14:28N 34°23' W 119°30'0 0.0
2018-Feb-13 14:00N 34°23' W 119°30'1 1.3
2018-Feb-13 13:28N 34°22' W 119°30'0 0.0
2018-Feb-13 12:54N 34°22' W 119°30'0 0.0
2018-Feb-13 12:29N 34°22' W 119°30'0 0.0
2018-Feb-13 11:58N 34°22' W 119°30'0 0.0
2018-Feb-13 11:28N 34°22' W 119°30'0 0.0
2018-Feb-13 10:59N 34°22' W 119°30'0 0.0
2018-Feb-13 10:30N 34°22' W 119°30'0 0.0
2018-Feb-13 09:59N 34°22' W 119°30'0 0.0
2018-Feb-13 09:28N 34°22' W 119°30'0 0.0
2018-Feb-13 08:58N 34°22' W 119°30'0 0.0
2018-Feb-13 08:30N 34°22' W 119°30'0 0.0
2018-Feb-13 07:59N 34°22' W 119°30'0 0.0
2018-Feb-13 07:30N 34°22' W 119°30'510.6
2018-Feb-13 07:00N 34°23' W 119°36'4 8.0
2018-Feb-13 06:27N 34°24' W 119°42'0 0.0
2018-Feb-13 05:49N 34°24' W 119°42'0 0.0
2018-Feb-13 05:27N 34°24' W 119°42'0 0.0
2018-Feb-13 05:00N 34°24' W 119°42'4 8.0
2018-Feb-13 04:30N 34°23' W 119°37'510.2
2018-Feb-13 04:00N 34°23' W 119°31'612.5
2018-Feb-13 03:30N 34°20' W 119°37'4 7.2
2018-Feb-13 02:59N 34°20' W 119°33'3 6.5
2018-Feb-13 02:30N 34°23' W 119°30'0 0.0
2018-Feb-13 02:00N 34°23' W 119°30'0 0.7
2018-Feb-13 01:30N 34°22' W 119°30'0 0.0
2018-Feb-13 00:56N 34°22' W 119°30'1 1.6
2018-Feb-13 00:28N 34°23' W 119°30'2 5.0
2018-Feb-13 00:00N 34°21' W 119°32'4 8.4
2018-Feb-12 23:30N 34°20' W 119°37'1 1.2
2018-Feb-12 22:59N 34°20' W 119°36'0 0.6
2018-Feb-12 22:30N 34°20' W 119°36'1 2.4
2018-Feb-12 22:00N 34°19' W 119°36'2 4.0
2018-Feb-12 21:29N 34°20' W 119°38'0 0.0
2018-Feb-12 21:00N 34°20' W 119°38'0 0.0
2018-Feb-12 20:30N 34°20' W 119°38'0 0.0
2018-Feb-12 20:00N 34°20' W 119°38'0 0.1
2018-Feb-12 19:30N 34°20' W 119°38'3 6.7
2018-Feb-12 19:00N 34°18' W 119°35'5 9.5
2018-Feb-12 18:30N 34°22' W 119°37'4 8.4
2018-Feb-12 18:00N 34°24' W 119°42'0 0.0
2018-Feb-12 17:30N 34°24' W 119°42'611.6
2018-Feb-12 17:00N 34°21' W 119°36'1 1.5
2018-Feb-12 16:29N 34°20' W 119°36'510.7
2018-Feb-12 16:00N 34°23' W 119°31'612.3
2018-Feb-12 15:29N 34°18' W 119°35'2 3.4
2018-Feb-12 14:58N 34°20' W 119°35'510.8
2018-Feb-12 14:29N 34°23' W 119°30'0 0.5
2018-Feb-12 13:57N 34°23' W 119°31'1 1.1
2018-Feb-12 13:27N 34°22' W 119°30'0 0.0
2018-Feb-12 12:47N 34°22' W 119°30'0 0.0
2018-Feb-12 12:28N 34°22' W 119°30'0 0.0
2018-Feb-12 11:56N 34°22' W 119°30'0 0.0
2018-Feb-12 11:28N 34°22' W 119°30'0 0.0
2018-Feb-12 10:59N 34°22' W 119°30'0 0.0
2018-Feb-12 10:29N 34°22' W 119°30'0 0.0
2018-Feb-12 10:00N 34°22' W 119°30'0 0.0
2018-Feb-12 09:30N 34°22' W 119°30'0 0.0
2018-Feb-12 09:00N 34°22' W 119°30'0 0.0
2018-Feb-12 08:28N 34°22' W 119°30'0 0.0
2018-Feb-12 08:00N 34°22' W 119°30'0 0.0
2018-Feb-12 07:29N 34°22' W 119°30'0 0.0
2018-Feb-12 07:00N 34°22' W 119°30'0 0.0
2018-Feb-12 06:22N 34°22' W 119°30'0 0.0
2018-Feb-12 05:59N 34°22' W 119°30'0 0.0
2018-Feb-12 05:26N 34°22' W 119°30'0 0.0
2018-Feb-12 04:58N 34°22' W 119°30'0 0.0
2018-Feb-12 04:29N 34°23' W 119°30'0 0.0
2018-Feb-12 03:58N 34°22' W 119°30'0 0.0
2018-Feb-12 03:24N 34°22' W 119°30'0 0.0
2018-Feb-12 03:00N 34°22' W 119°30'4 8.1
2018-Feb-12 02:30N 34°20' W 119°34'2 3.0
2018-Feb-12 01:58N 34°21' W 119°32'1 1.5
2018-Feb-12 01:30N 34°21' W 119°33'1 1.7
2018-Feb-12 00:59N 34°20' W 119°34'0 0.0
2018-Feb-12 00:30N 34°20' W 119°34'0 0.0
2018-Feb-12 00:00N 34°20' W 119°34'2 4.5
2018-Feb-11 23:30N 34°20' W 119°36'0 0.3
2018-Feb-11 22:59N 34°20' W 119°36'0 0.0
2018-Feb-11 22:29N 34°20' W 119°36'0 0.3
2018-Feb-11 22:00N 34°20' W 119°36'0 0.2
2018-Feb-11 21:28N 34°20' W 119°36'0 0.0
2018-Feb-11 21:00N 34°20' W 119°36'0 0.0
2018-Feb-11 20:30N 34°20' W 119°36'0 0.0
2018-Feb-11 19:57N 34°20' W 119°36'0 0.0
2018-Feb-11 19:30N 34°20' W 119°36'0 0.0
2018-Feb-11 19:00N 34°20' W 119°36'0 0.0
2018-Feb-11 18:30N 34°20' W 119°36'0 0.0
2018-Feb-11 17:59N 34°20' W 119°36'0 0.0
2018-Feb-11 17:28N 34°20' W 119°36'0 0.1
2018-Feb-11 16:59N 34°20' W 119°36'0 0.0
2018-Feb-11 16:30N 34°20' W 119°36'0 0.0
2018-Feb-11 16:00N 34°20' W 119°36'0 0.0
2018-Feb-11 15:28N 34°20' W 119°36'1 1.9
2018-Feb-11 15:00N 34°20' W 119°37'612.5
2018-Feb-11 14:29N 34°23' W 119°30'0 0.6
2018-Feb-11 13:59N 34°23' W 119°31'1 1.3
2018-Feb-11 13:30N 34°22' W 119°30'0 0.0
2018-Feb-11 12:57N 34°22' W 119°30'0 0.0
2018-Feb-11 12:25N 34°22' W 119°30'0 0.0
2018-Feb-11 11:58N 34°22' W 119°30'0 0.0
2018-Feb-11 11:28N 34°22' W 119°30'0 0.0
2018-Feb-11 11:00N 34°22' W 119°30'0 0.0
2018-Feb-11 10:29N 34°22' W 119°30'0 0.0
2018-Feb-11 09:58N 34°22' W 119°30'0 0.0
2018-Feb-11 09:29N 34°22' W 119°30'0 0.0
2018-Feb-11 08:59N 34°22' W 119°30'0 0.0
2018-Feb-11 08:30N 34°22' W 119°30'0 0.0
2018-Feb-11 07:59N 34°22' W 119°30'0 0.0
2018-Feb-11 07:29N 34°22' W 119°30'0 0.0
2018-Feb-11 06:58N 34°22' W 119°30'0 0.0
2018-Feb-11 06:28N 34°22' W 119°30'0 0.0
2018-Feb-11 06:00N 34°22' W 119°30'0 0.0
2018-Feb-11 05:29N 34°22' W 119°30'0 0.0
2018-Feb-11 04:59N 34°22' W 119°30'0 0.0
2018-Feb-11 04:26N 34°22' W 119°30'0 0.0
2018-Feb-11 04:00N 34°22' W 119°30'0 0.0
2018-Feb-11 03:29N 34°22' W 119°30'0 0.0
2018-Feb-11 02:59N 34°22' W 119°30'510.7
2018-Feb-11 02:30N 34°20' W 119°35'4 7.1
2018-Feb-11 02:01N 34°22' W 119°32'1 2.5
2018-Feb-11 01:29N 34°23' W 119°31'611.8
2018-Feb-11 00:58N 34°20' W 119°38'1 2.3
2018-Feb-11 00:29N 34°20' W 119°36'0 0.0
2018-Feb-11 00:00N 34°20' W 119°36'0 0.0
2018-Feb-10 23:27N 34°20' W 119°36'0 0.0
2018-Feb-10 23:00N 34°20' W 119°36'0 0.1
2018-Feb-10 22:28N 34°20' W 119°36'0 0.0
2018-Feb-10 22:00N 34°20' W 119°36'0 0.0
2018-Feb-10 21:30N 34°20' W 119°36'2 3.7
2018-Feb-10 20:59N 34°22' W 119°37'5 9.4
2018-Feb-10 20:30N 34°24' W 119°42'0 0.0
2018-Feb-10 19:57N 34°24' W 119°42'0 0.0
2018-Feb-10 19:27N 34°24' W 119°42'3 7.6
2018-Feb-10 19:00N 34°23' W 119°38'713.6
2018-Feb-10 18:29N 34°20' W 119°30'2 4.9
2018-Feb-10 17:59N 34°20' W 119°33'4 8.1
2018-Feb-10 17:30N 34°20' W 119°37'3 6.2
2018-Feb-10 17:00N 34°20' W 119°34'4 7.1
2018-Feb-10 16:30N 34°23' W 119°31'1 1.0
2018-Feb-10 16:00N 34°23' W 119°30'2 3.6
2018-Feb-10 15:30N 34°22' W 119°32'5 9.8
2018-Feb-10 15:00N 34°20' W 119°37'613.2
2018-Feb-10 14:30N 34°23' W 119°30'0 0.5
2018-Feb-10 14:00N 34°23' W 119°31'1 1.1
2018-Feb-10 13:27N 34°22' W 119°30'0 0.0
2018-Feb-10 12:59N 34°22' W 119°30'0 0.0
2018-Feb-10 12:30N 34°22' W 119°30'0 0.0
2018-Feb-10 11:57N 34°22' W 119°30'0 0.0
2018-Feb-10 11:30N 34°22' W 119°30'0 0.0
2018-Feb-10 10:58N 34°22' W 119°30'0 0.0
2018-Feb-10 10:28N 34°22' W 119°30'0 0.0
2018-Feb-10 09:59N 34°22' W 119°30'0 0.0
2018-Feb-10 09:27N 34°22' W 119°30'0 0.0
2018-Feb-10 08:56N 34°22' W 119°30'0 0.0
2018-Feb-10 08:29N 34°22' W 119°30'0 0.0
2018-Feb-10 07:57N 34°22' W 119°30'0 0.0
2018-Feb-10 07:26N 34°22' W 119°30'0 0.0
2018-Feb-10 06:58N 34°22' W 119°30'0 0.0
2018-Feb-10 06:27N 34°22' W 119°30'0 0.0
2018-Feb-10 06:00N 34°22' W 119°30'0 0.0
2018-Feb-10 05:29N 34°22' W 119°30'0 0.0
2018-Feb-10 05:00N 34°22' W 119°30'0 0.0
2018-Feb-10 04:30N 34°22' W 119°30'0 0.0
2018-Feb-10 04:00N 34°22' W 119°30'0 0.0
2018-Feb-10 03:29N 34°22' W 119°30'0 0.0
2018-Feb-10 03:00N 34°22' W 119°30'5 9.5
2018-Feb-10 02:30N 34°20' W 119°35'2 4.9
2018-Feb-10 02:00N 34°21' W 119°32'2 4.5
2018-Feb-10 01:30N 34°23' W 119°30'0 0.0
2018-Feb-10 01:00N 34°23' W 119°30'  

Dump ship's entire track history